KRWI

Rocky Mount-Wilson Regional Airport

Rocky Mount, North Carolina, USA
METAR KRWI 160153Z AUTO 25004KT 1 1/4SM BR OVC003 11/11 A2995 RMK AO2 SLP142 T01060106
Observed Flight Rules
Dec-16 @ 01:53 UTC (21 minutes ago) Instrument Flight Rules
Wind Visibility Clouds Conditions
250° at 4 knots 1 1/4 miles
  • Overcast at 300' AGL
  • Mist
Temperatures Readings
Current 11°C / 52°F
Dewpoint 11°C / 52°F
Humidity 100%
Altimeter 29.95" Hg
Pressure 1014.2 hPa
Elevation 47
METAR KRWI 160153Z AUTO 25004KT 1 1/4SM BR OVC003 11/11 A2995 RMK AO2 SLP142 T01060106
Observed Flight Rules
Dec-16 @ 01:53 UTC
(21 minutes ago)
LIFR
Wind Visibility
250° at 4 knots 1 1/4 miles
Clouds
  • Overcast at 300' AGL
Conditions
  • Mist
Temperature Dewpoint
11°C / 52°F 11°C / 52°F
Humidity Altimeter Pressure
100% 29.95" Hg 1014.2 hPa